sensor_id;sensor_type;location;lat;lon;timestamp;temperature;humidity
12520;DHT22;6325;49.540;8.364;2023-05-07T00:00:46;16.40;99.90
12520;DHT22;6325;49.540;8.364;2023-05-07T00:03:13;15.80;99.90
12520;DHT22;6325;49.540;8.364;2023-05-07T00:05:41;16.40;99.90
12520;DHT22;6325;49.540;8.364;2023-05-07T00:08:09;16.30;99.90
12520;DHT22;6325;49.540;8.364;2023-05-07T00:10:36;16.90;99.90
12520;DHT22;6325;49.540;8.364;2023-05-07T00:13:03;16.50;99.90
12520;DHT22;6325;49.540;8.364;2023-05-07T00:15:29;16.20;99.90
12520;DHT22;6325;49.540;8.364;2023-05-07T00:17:56;16.30;99.90
12520;DHT22;6325;49.540;8.364;2023-05-07T00:20:24;16.20;99.90
12520;DHT22;6325;49.540;8.364;2023-05-07T00:22:51;15.70;99.90
12520;DHT22;6325;49.540;8.364;2023-05-07T00:25:19;16.60;99.90
12520;DHT22;6325;49.540;8.364;2023-05-07T00:27:46;16.60;99.90
12520;DHT22;6325;49.540;8.364;2023-05-07T00:30:13;15.70;99.90
12520;DHT22;6325;49.540;8.364;2023-05-07T00:32:40;16.30;99.90
12520;DHT22;6325;49.540;8.364;2023-05-07T00:35:08;16.10;99.90
12520;DHT22;6325;49.540;8.364;2023-05-07T00:37:35;16.10;99.90
12520;DHT22;6325;49.540;8.364;2023-05-07T00:40:03;15.90;99.90
12520;DHT22;6325;49.540;8.364;2023-05-07T00:42:34;16.10;99.90
12520;DHT22;6325;49.540;8.364;2023-05-07T00:45:02;16.00;99.90
12520;DHT22;6325;49.540;8.364;2023-05-07T00:47:29;16.10;99.90
12520;DHT22;6325;49.540;8.364;2023-05-07T00:49:57;16.30;99.90
12520;DHT22;6325;49.540;8.364;2023-05-07T00:52:26;16.50;99.90
12520;DHT22;6325;49.540;8.364;2023-05-07T00:54:53;16.20;99.90
12520;DHT22;6325;49.540;8.364;2023-05-07T00:57:21;15.70;99.90
12520;DHT22;6325;49.540;8.364;2023-05-07T00:59:51;15.90;99.90
12520;DHT22;6325;49.540;8.364;2023-05-07T01:02:18;15.70;99.90
12520;DHT22;6325;49.540;8.364;2023-05-07T01:04:44;15.20;99.90
12520;DHT22;6325;49.540;8.364;2023-05-07T01:07:12;15.80;99.90
12520;DHT22;6325;49.540;8.364;2023-05-07T01:09:39;15.60;99.90
12520;DHT22;6325;49.540;8.364;2023-05-07T01:12:07;15.40;99.90
12520;DHT22;6325;49.540;8.364;2023-05-07T01:14:34;15.70;99.90
12520;DHT22;6325;49.540;8.364;2023-05-07T01:17:03;15.50;99.90
12520;DHT22;6325;49.540;8.364;2023-05-07T01:19:30;15.50;99.90
12520;DHT22;6325;49.540;8.364;2023-05-07T01:22:02;15.60;99.90
12520;DHT22;6325;49.540;8.364;2023-05-07T01:24:31;15.70;99.90
12520;DHT22;6325;49.540;8.364;2023-05-07T01:26:59;15.90;99.90
12520;DHT22;6325;49.540;8.364;2023-05-07T01:29:27;15.50;99.90
12520;DHT22;6325;49.540;8.364;2023-05-07T01:31:57;15.30;99.90
12520;DHT22;6325;49.540;8.364;2023-05-07T01:34:25;15.50;99.90
12520;DHT22;6325;49.540;8.364;2023-05-07T01:36:54;15.40;99.90
12520;DHT22;6325;49.540;8.364;2023-05-07T01:39:24;15.50;99.90
12520;DHT22;6325;49.540;8.364;2023-05-07T01:41:53;15.40;99.90
12520;DHT22;6325;49.540;8.364;2023-05-07T01:44:21;15.40;99.90
12520;DHT22;6325;49.540;8.364;2023-05-07T01:46:49;15.60;99.90
12520;DHT22;6325;49.540;8.364;2023-05-07T01:49:16;15.50;99.90
12520;DHT22;6325;49.540;8.364;2023-05-07T01:51:43;16.00;99.90
12520;DHT22;6325;49.540;8.364;2023-05-07T01:54:12;14.80;99.90
12520;DHT22;6325;49.540;8.364;2023-05-07T01:56:40;15.30;99.90
12520;DHT22;6325;49.540;8.364;2023-05-07T01:59:08;15.30;99.90
12520;DHT22;6325;49.540;8.364;2023-05-07T02:01:35;15.40;99.90
12520;DHT22;6325;49.540;8.364;2023-05-07T02:04:02;15.40;99.90
12520;DHT22;6325;49.540;8.364;2023-05-07T02:06:29;15.00;99.90
12520;DHT22;6325;49.540;8.364;2023-05-07T02:08:56;14.70;99.90
12520;DHT22;6325;49.540;8.364;2023-05-07T02:11:23;15.00;99.90
12520;DHT22;6325;49.540;8.364;2023-05-07T02:13:50;15.30;99.90
12520;DHT22;6325;49.540;8.364;2023-05-07T02:16:19;15.00;99.90
12520;DHT22;6325;49.540;8.364;2023-05-07T02:18:47;14.90;99.90
12520;DHT22;6325;49.540;8.364;2023-05-07T02:21:14;14.90;99.90
12520;DHT22;6325;49.540;8.364;2023-05-07T02:23:40;15.00;99.90
12520;DHT22;6325;49.540;8.364;2023-05-07T02:26:07;15.20;99.90
12520;DHT22;6325;49.540;8.364;2023-05-07T02:28:34;15.00;99.90
12520;DHT22;6325;49.540;8.364;2023-05-07T02:31:02;15.40;99.90
12520;DHT22;6325;49.540;8.364;2023-05-07T02:33:31;15.10;99.90
12520;DHT22;6325;49.540;8.364;2023-05-07T02:36:06;15.10;99.90
12520;DHT22;6325;49.540;8.364;2023-05-07T02:38:33;15.10;99.90
12520;DHT22;6325;49.540;8.364;2023-05-07T02:41:00;14.80;99.90
12520;DHT22;6325;49.540;8.364;2023-05-07T02:43:26;14.70;99.90
12520;DHT22;6325;49.540;8.364;2023-05-07T02:46:00;14.70;99.90
12520;DHT22;6325;49.540;8.364;2023-05-07T02:48:28;14.10;99.90
12520;DHT22;6325;49.540;8.364;2023-05-07T02:50:56;14.10;99.90
12520;DHT22;6325;49.540;8.364;2023-05-07T02:53:23;14.30;99.90
12520;DHT22;6325;49.540;8.364;2023-05-07T02:55:51;14.60;99.90
12520;DHT22;6325;49.540;8.364;2023-05-07T02:58:19;14.70;99.90
12520;DHT22;6325;49.540;8.364;2023-05-07T03:00:46;15.00;99.90
12520;DHT22;6325;49.540;8.364;2023-05-07T03:03:13;14.50;99.90
12520;DHT22;6325;49.540;8.364;2023-05-07T03:05:41;14.00;99.90
12520;DHT22;6325;49.540;8.364;2023-05-07T03:08:10;14.60;99.90
12520;DHT22;6325;49.540;8.364;2023-05-07T03:10:37;14.20;99.90
12520;DHT22;6325;49.540;8.364;2023-05-07T03:13:04;14.60;99.90
12520;DHT22;6325;49.540;8.364;2023-05-07T03:15:31;14.70;99.90
12520;DHT22;6325;49.540;8.364;2023-05-07T03:17:58;14.10;99.90
12520;DHT22;6325;49.540;8.364;2023-05-07T03:20:25;14.50;99.90
12520;DHT22;6325;49.540;8.364;2023-05-07T03:22:51;14.40;99.90
12520;DHT22;6325;49.540;8.364;2023-05-07T03:25:19;15.00;99.90
12520;DHT22;6325;49.540;8.364;2023-05-07T03:27:46;14.00;99.90
12520;DHT22;6325;49.540;8.364;2023-05-07T03:30:13;14.90;99.90
12520;DHT22;6325;49.540;8.364;2023-05-07T03:32:40;13.80;99.90
12520;DHT22;6325;49.540;8.364;2023-05-07T03:35:07;14.30;99.90
12520;DHT22;6325;49.540;8.364;2023-05-07T03:37:33;14.90;99.90
12520;DHT22;6325;49.540;8.364;2023-05-07T03:40:00;14.40;99.90
12520;DHT22;6325;49.540;8.364;2023-05-07T03:42:29;14.30;99.90
12520;DHT22;6325;49.540;8.364;2023-05-07T03:44:55;14.10;99.90
12520;DHT22;6325;49.540;8.364;2023-05-07T03:47:22;14.20;99.90
12520;DHT22;6325;49.540;8.364;2023-05-07T03:49:49;14.20;99.90
12520;DHT22;6325;49.540;8.364;2023-05-07T03:52:18;14.30;99.90
12520;DHT22;6325;49.540;8.364;2023-05-07T03:54:49;14.30;99.90
12520;DHT22;6325;49.540;8.364;2023-05-07T03:57:16;14.60;99.90
12520;DHT22;6325;49.540;8.364;2023-05-07T03:59:44;14.80;99.90
12520;DHT22;6325;49.540;8.364;2023-05-07T04:02:11;14.20;99.90
12520;DHT22;6325;49.540;8.364;2023-05-07T04:04:38;14.20;99.90
12520;DHT22;6325;49.540;8.364;2023-05-07T04:07:04;14.50;99.90
12520;DHT22;6325;49.540;8.364;2023-05-07T04:09:32;14.30;99.90
12520;DHT22;6325;49.540;8.364;2023-05-07T04:11:59;14.60;99.90
12520;DHT22;6325;49.540;8.364;2023-05-07T04:14:26;14.60;99.90
12520;DHT22;6325;49.540;8.364;2023-05-07T04:16:54;14.00;99.90
12520;DHT22;6325;49.540;8.364;2023-05-07T04:19:21;14.70;99.90
12520;DHT22;6325;49.540;8.364;2023-05-07T04:21:48;14.50;99.90
12520;DHT22;6325;49.540;8.364;2023-05-07T04:24:15;14.20;99.90
12520;DHT22;6325;49.540;8.364;2023-05-07T04:26:42;14.20;99.90
12520;DHT22;6325;49.540;8.364;2023-05-07T04:29:08;14.30;99.90
12520;DHT22;6325;49.540;8.364;2023-05-07T04:31:35;13.80;99.90
12520;DHT22;6325;49.540;8.364;2023-05-07T04:34:03;13.60;99.90
12520;DHT22;6325;49.540;8.364;2023-05-07T04:36:30;14.30;99.90
12520;DHT22;6325;49.540;8.364;2023-05-07T04:38:58;14.20;99.90
12520;DHT22;6325;49.540;8.364;2023-05-07T04:41:25;14.30;99.90
12520;DHT22;6325;49.540;8.364;2023-05-07T04:43:53;14.00;99.90
12520;DHT22;6325;49.540;8.364;2023-05-07T04:46:20;14.30;99.90
12520;DHT22;6325;49.540;8.364;2023-05-07T04:48:46;14.80;99.90
12520;DHT22;6325;49.540;8.364;2023-05-07T04:51:14;14.40;99.90
12520;DHT22;6325;49.540;8.364;2023-05-07T04:53:41;14.40;99.90
12520;DHT22;6325;49.540;8.364;2023-05-07T04:56:08;14.50;99.90
12520;DHT22;6325;49.540;8.364;2023-05-07T04:58:35;14.20;99.90
12520;DHT22;6325;49.540;8.364;2023-05-07T05:01:02;14.60;99.90
12520;DHT22;6325;49.540;8.364;2023-05-07T05:03:30;14.00;99.90
12520;DHT22;6325;49.540;8.364;2023-05-07T05:05:56;14.60;99.90
12520;DHT22;6325;49.540;8.364;2023-05-07T05:08:26;14.70;99.90
12520;DHT22;6325;49.540;8.364;2023-05-07T05:10:52;14.40;99.90
12520;DHT22;6325;49.540;8.364;2023-05-07T05:13:20;15.10;99.90
12520;DHT22;6325;49.540;8.364;2023-05-07T05:15:47;14.90;99.90
12520;DHT22;6325;49.540;8.364;2023-05-07T05:18:13;15.00;99.90
12520;DHT22;6325;49.540;8.364;2023-05-07T05:20:40;15.00;99.90
12520;DHT22;6325;49.540;8.364;2023-05-07T05:23:07;14.80;99.90
12520;DHT22;6325;49.540;8.364;2023-05-07T05:25:36;14.60;99.90
12520;DHT22;6325;49.540;8.364;2023-05-07T05:28:04;15.10;99.90
12520;DHT22;6325;49.540;8.364;2023-05-07T05:30:31;14.90;99.90
12520;DHT22;6325;49.540;8.364;2023-05-07T05:32:58;14.90;99.90
12520;DHT22;6325;49.540;8.364;2023-05-07T05:35:25;15.90;99.90
12520;DHT22;6325;49.540;8.364;2023-05-07T05:37:52;15.60;99.90
12520;DHT22;6325;49.540;8.364;2023-05-07T05:40:19;15.40;99.90
12520;DHT22;6325;49.540;8.364;2023-05-07T05:42:47;15.80;99.90
12520;DHT22;6325;49.540;8.364;2023-05-07T05:45:14;15.70;99.90
12520;DHT22;6325;49.540;8.364;2023-05-07T05:47:41;15.70;99.90
12520;DHT22;6325;49.540;8.364;2023-05-07T05:50:08;16.00;99.90
12520;DHT22;6325;49.540;8.364;2023-05-07T05:52:34;15.80;99.90
12520;DHT22;6325;49.540;8.364;2023-05-07T05:55:01;15.90;99.90
12520;DHT22;6325;49.540;8.364;2023-05-07T05:57:28;16.30;99.90
12520;DHT22;6325;49.540;8.364;2023-05-07T05:59:56;16.00;99.90
12520;DHT22;6325;49.540;8.364;2023-05-07T06:02:23;16.30;99.90
12520;DHT22;6325;49.540;8.364;2023-05-07T06:04:50;15.50;99.90
12520;DHT22;6325;49.540;8.364;2023-05-07T06:07:17;16.00;99.90
12520;DHT22;6325;49.540;8.364;2023-05-07T06:09:44;16.50;99.90
12520;DHT22;6325;49.540;8.364;2023-05-07T06:12:11;16.30;99.90
12520;DHT22;6325;49.540;8.364;2023-05-07T06:14:37;16.10;99.90
12520;DHT22;6325;49.540;8.364;2023-05-07T06:17:06;16.50;99.90
12520;DHT22;6325;49.540;8.364;2023-05-07T06:19:33;16.60;99.90
12520;DHT22;6325;49.540;8.364;2023-05-07T06:22:00;16.60;99.90
12520;DHT22;6325;49.540;8.364;2023-05-07T06:24:28;17.00;99.90
12520;DHT22;6325;49.540;8.364;2023-05-07T06:26:55;17.00;99.90
12520;DHT22;6325;49.540;8.364;2023-05-07T06:29:23;16.90;99.90
12520;DHT22;6325;49.540;8.364;2023-05-07T06:31:51;16.90;99.90
12520;DHT22;6325;49.540;8.364;2023-05-07T06:34:19;17.00;99.90
12520;DHT22;6325;49.540;8.364;2023-05-07T06:36:46;17.00;99.90
12520;DHT22;6325;49.540;8.364;2023-05-07T06:39:13;16.50;99.90
12520;DHT22;6325;49.540;8.364;2023-05-07T06:41:40;17.10;99.90
12520;DHT22;6325;49.540;8.364;2023-05-07T06:44:06;16.90;99.90
12520;DHT22;6325;49.540;8.364;2023-05-07T06:46:33;17.30;99.90
12520;DHT22;6325;49.540;8.364;2023-05-07T06:49:00;17.90;99.90
12520;DHT22;6325;49.540;8.364;2023-05-07T06:51:28;16.80;99.90
12520;DHT22;6325;49.540;8.364;2023-05-07T06:53:55;17.40;99.90
12520;DHT22;6325;49.540;8.364;2023-05-07T06:56:22;17.80;99.90
12520;DHT22;6325;49.540;8.364;2023-05-07T06:58:49;17.50;99.90
12520;DHT22;6325;49.540;8.364;2023-05-07T07:01:16;17.80;99.90
12520;DHT22;6325;49.540;8.364;2023-05-07T07:03:43;17.90;99.90
12520;DHT22;6325;49.540;8.364;2023-05-07T07:06:10;17.90;99.90
12520;DHT22;6325;49.540;8.364;2023-05-07T07:08:38;18.00;99.90
12520;DHT22;6325;49.540;8.364;2023-05-07T07:11:05;18.20;99.90
12520;DHT22;6325;49.540;8.364;2023-05-07T07:13:32;18.20;99.90
12520;DHT22;6325;49.540;8.364;2023-05-07T07:15:59;18.20;99.90
12520;DHT22;6325;49.540;8.364;2023-05-07T07:18:26;18.20;99.90
12520;DHT22;6325;49.540;8.364;2023-05-07T07:20:53;18.40;99.90
12520;DHT22;6325;49.540;8.364;2023-05-07T07:23:20;18.60;99.90
12520;DHT22;6325;49.540;8.364;2023-05-07T07:25:48;18.30;99.90
12520;DHT22;6325;49.540;8.364;2023-05-07T07:28:15;17.90;99.90
12520;DHT22;6325;49.540;8.364;2023-05-07T07:30:41;18.80;99.90
12520;DHT22;6325;49.540;8.364;2023-05-07T07:33:08;19.00;99.90
12520;DHT22;6325;49.540;8.364;2023-05-07T07:35:35;18.70;99.90
12520;DHT22;6325;49.540;8.364;2023-05-07T07:38:02;18.70;99.90
12520;DHT22;6325;49.540;8.364;2023-05-07T07:40:29;18.40;99.90
12520;DHT22;6325;49.540;8.364;2023-05-07T07:42:57;19.40;99.90
12520;DHT22;6325;49.540;8.364;2023-05-07T07:45:24;18.70;99.90
12520;DHT22;6325;49.540;8.364;2023-05-07T07:47:50;18.80;99.90
12520;DHT22;6325;49.540;8.364;2023-05-07T07:50:17;18.70;99.90
12520;DHT22;6325;49.540;8.364;2023-05-07T07:52:44;18.90;99.90
12520;DHT22;6325;49.540;8.364;2023-05-07T07:55:11;19.10;99.90
12520;DHT22;6325;49.540;8.364;2023-05-07T07:57:38;18.90;99.90
12520;DHT22;6325;49.540;8.364;2023-05-07T08:00:07;19.10;99.90
12520;DHT22;6325;49.540;8.364;2023-05-07T08:02:36;19.10;99.90
12520;DHT22;6325;49.540;8.364;2023-05-07T08:05:03;19.10;99.90
12520;DHT22;6325;49.540;8.364;2023-05-07T08:07:30;19.30;99.90
12520;DHT22;6325;49.540;8.364;2023-05-07T08:09:57;19.40;99.90
12520;DHT22;6325;49.540;8.364;2023-05-07T08:12:23;19.30;99.90
12520;DHT22;6325;49.540;8.364;2023-05-07T08:14:50;19.70;99.90
12520;DHT22;6325;49.540;8.364;2023-05-07T08:17:18;19.40;99.90
12520;DHT22;6325;49.540;8.364;2023-05-07T08:19:47;19.40;99.90
12520;DHT22;6325;49.540;8.364;2023-05-07T08:22:14;19.50;99.90
12520;DHT22;6325;49.540;8.364;2023-05-07T08:24:41;19.50;99.90
12520;DHT22;6325;49.540;8.364;2023-05-07T08:27:07;18.90;99.90
12520;DHT22;6325;49.540;8.364;2023-05-07T08:29:34;19.90;99.90
12520;DHT22;6325;49.540;8.364;2023-05-07T08:32:01;19.30;99.90
12520;DHT22;6325;49.540;8.364;2023-05-07T08:34:29;19.40;99.90
12520;DHT22;6325;49.540;8.364;2023-05-07T08:36:56;19.50;99.90
12520;DHT22;6325;49.540;8.364;2023-05-07T08:39:23;19.60;99.90
12520;DHT22;6325;49.540;8.364;2023-05-07T08:41:51;19.60;99.90
12520;DHT22;6325;49.540;8.364;2023-05-07T08:44:22;19.30;99.90
12520;DHT22;6325;49.540;8.364;2023-05-07T08:46:53;19.80;99.90
12520;DHT22;6325;49.540;8.364;2023-05-07T08:49:22;19.80;99.90
12520;DHT22;6325;49.540;8.364;2023-05-07T08:51:50;19.80;99.90
12520;DHT22;6325;49.540;8.364;2023-05-07T08:54:17;19.90;99.90
12520;DHT22;6325;49.540;8.364;2023-05-07T08:56:45;19.90;99.90
12520;DHT22;6325;49.540;8.364;2023-05-07T08:59:12;20.00;99.90
12520;DHT22;6325;49.540;8.364;2023-05-07T09:01:39;20.40;99.90
12520;DHT22;6325;49.540;8.364;2023-05-07T09:04:06;20.00;99.90
12520;DHT22;6325;49.540;8.364;2023-05-07T09:06:33;19.80;99.90
12520;DHT22;6325;49.540;8.364;2023-05-07T09:09:01;20.40;99.90
12520;DHT22;6325;49.540;8.364;2023-05-07T09:11:30;20.60;99.90
12520;DHT22;6325;49.540;8.364;2023-05-07T09:13:57;20.60;99.90
12520;DHT22;6325;49.540;8.364;2023-05-07T09:16:29;21.20;99.90
12520;DHT22;6325;49.540;8.364;2023-05-07T09:18:57;21.40;99.90
12520;DHT22;6325;49.540;8.364;2023-05-07T09:21:24;21.00;99.90
12520;DHT22;6325;49.540;8.364;2023-05-07T09:23:52;21.70;99.90
12520;DHT22;6325;49.540;8.364;2023-05-07T09:26:22;22.30;99.90
12520;DHT22;6325;49.540;8.364;2023-05-07T09:28:49;22.40;99.90
12520;DHT22;6325;49.540;8.364;2023-05-07T09:31:16;22.60;99.90
12520;DHT22;6325;49.540;8.364;2023-05-07T09:33:43;23.20;99.90
12520;DHT22;6325;49.540;8.364;2023-05-07T09:36:10;22.90;99.90
12520;DHT22;6325;49.540;8.364;2023-05-07T09:38:38;23.50;99.90
12520;DHT22;6325;49.540;8.364;2023-05-07T09:41:06;23.00;99.90
12520;DHT22;6325;49.540;8.364;2023-05-07T09:43:36;23.40;99.90
12520;DHT22;6325;49.540;8.364;2023-05-07T09:46:06;23.20;99.90
12520;DHT22;6325;49.540;8.364;2023-05-07T09:48:37;24.30;99.90
12520;DHT22;6325;49.540;8.364;2023-05-07T09:51:11;23.50;99.90
12520;DHT22;6325;49.540;8.364;2023-05-07T09:53:40;23.90;99.90
12520;DHT22;6325;49.540;8.364;2023-05-07T09:56:07;24.20;99.90
12520;DHT22;6325;49.540;8.364;2023-05-07T09:58:37;23.60;99.90
12520;DHT22;6325;49.540;8.364;2023-05-07T10:01:05;23.70;99.90
12520;DHT22;6325;49.540;8.364;2023-05-07T10:03:33;23.30;99.90
12520;DHT22;6325;49.540;8.364;2023-05-07T10:06:02;24.10;99.90
12520;DHT22;6325;49.540;8.364;2023-05-07T10:08:30;24.00;99.90
12520;DHT22;6325;49.540;8.364;2023-05-07T10:10:59;24.40;99.90
12520;DHT22;6325;49.540;8.364;2023-05-07T10:13:26;24.30;99.90
12520;DHT22;6325;49.540;8.364;2023-05-07T10:15:55;24.20;99.90
12520;DHT22;6325;49.540;8.364;2023-05-07T10:18:22;24.50;99.90
12520;DHT22;6325;49.540;8.364;2023-05-07T10:20:55;24.70;99.90
12520;DHT22;6325;49.540;8.364;2023-05-07T10:23:27;25.10;99.90
12520;DHT22;6325;49.540;8.364;2023-05-07T10:26:02;25.20;99.90
12520;DHT22;6325;49.540;8.364;2023-05-07T10:28:34;24.80;99.90
12520;DHT22;6325;49.540;8.364;2023-05-07T10:31:38;24.70;99.90
12520;DHT22;6325;49.540;8.364;2023-05-07T10:34:19;24.80;99.90
12520;DHT22;6325;49.540;8.364;2023-05-07T10:36:48;24.60;99.90
12520;DHT22;6325;49.540;8.364;2023-05-07T10:39:17;24.40;99.90
12520;DHT22;6325;49.540;8.364;2023-05-07T10:41:48;24.40;99.90
12520;DHT22;6325;49.540;8.364;2023-05-07T10:44:25;24.10;99.90
12520;DHT22;6325;49.540;8.364;2023-05-07T10:47:13;24.50;99.90
12520;DHT22;6325;49.540;8.364;2023-05-07T10:52:44;23.90;99.90
12520;DHT22;6325;49.540;8.364;2023-05-07T10:55:21;24.30;99.90
12520;DHT22;6325;49.540;8.364;2023-05-07T10:57:50;24.50;99.90
12520;DHT22;6325;49.540;8.364;2023-05-07T11:00:41;24.70;99.90
12520;DHT22;6325;49.540;8.364;2023-05-07T11:03:10;24.80;99.90
12520;DHT22;6325;49.540;8.364;2023-05-07T11:05:37;24.60;99.90
12520;DHT22;6325;49.540;8.364;2023-05-07T11:08:05;25.40;99.90
12520;DHT22;6325;49.540;8.364;2023-05-07T11:10:48;25.50;99.90
12520;DHT22;6325;49.540;8.364;2023-05-07T11:13:16;25.70;99.90
12520;DHT22;6325;49.540;8.364;2023-05-07T11:15:44;26.00;99.90
12520;DHT22;6325;49.540;8.364;2023-05-07T11:18:15;26.40;99.90
12520;DHT22;6325;49.540;8.364;2023-05-07T11:20:54;26.20;99.90
12520;DHT22;6325;49.540;8.364;2023-05-07T11:26:45;26.40;99.90
12520;DHT22;6325;49.540;8.364;2023-05-07T11:29:15;27.00;99.90
12520;DHT22;6325;49.540;8.364;2023-05-07T11:31:42;26.80;99.90
12520;DHT22;6325;49.540;8.364;2023-05-07T11:34:11;26.90;99.90
12520;DHT22;6325;49.540;8.364;2023-05-07T11:36:43;26.50;99.90
12520;DHT22;6325;49.540;8.364;2023-05-07T11:39:29;26.50;99.90
12520;DHT22;6325;49.540;8.364;2023-05-07T11:41:57;27.20;99.90
12520;DHT22;6325;49.540;8.364;2023-05-07T11:44:24;27.10;99.90
12520;DHT22;6325;49.540;8.364;2023-05-07T11:46:50;27.20;99.90
12520;DHT22;6325;49.540;8.364;2023-05-07T11:49:19;26.50;99.90
12520;DHT22;6325;49.540;8.364;2023-05-07T11:51:46;27.30;99.90
12520;DHT22;6325;49.540;8.364;2023-05-07T11:54:16;27.40;99.90
12520;DHT22;6325;49.540;8.364;2023-05-07T11:56:44;27.00;99.90
12520;DHT22;6325;49.540;8.364;2023-05-07T11:59:11;27.00;99.90
12520;DHT22;6325;49.540;8.364;2023-05-07T12:01:38;27.70;99.90
12520;DHT22;6325;49.540;8.364;2023-05-07T12:04:05;27.20;99.90
12520;DHT22;6325;49.540;8.364;2023-05-07T12:06:36;27.60;99.90
12520;DHT22;6325;49.540;8.364;2023-05-07T12:09:03;27.80;99.90
12520;DHT22;6325;49.540;8.364;2023-05-07T12:11:32;27.20;99.90
12520;DHT22;6325;49.540;8.364;2023-05-07T12:13:59;27.90;99.90
12520;DHT22;6325;49.540;8.364;2023-05-07T12:16:26;28.20;99.90
12520;DHT22;6325;49.540;8.364;2023-05-07T12:18:53;28.20;99.90
12520;DHT22;6325;49.540;8.364;2023-05-07T12:21:21;28.10;99.90
12520;DHT22;6325;49.540;8.364;2023-05-07T12:23:50;28.70;99.90
12520;DHT22;6325;49.540;8.364;2023-05-07T12:26:17;28.50;99.90
12520;DHT22;6325;49.540;8.364;2023-05-07T12:28:46;27.80;99.90
12520;DHT22;6325;49.540;8.364;2023-05-07T12:31:14;28.50;99.90
12520;DHT22;6325;49.540;8.364;2023-05-07T12:33:41;28.10;99.90
12520;DHT22;6325;49.540;8.364;2023-05-07T12:36:09;27.80;99.90
12520;DHT22;6325;49.540;8.364;2023-05-07T12:38:39;27.40;99.90
12520;DHT22;6325;49.540;8.364;2023-05-07T12:41:09;26.90;99.90
12520;DHT22;6325;49.540;8.364;2023-05-07T12:43:36;26.30;99.90
12520;DHT22;6325;49.540;8.364;2023-05-07T12:46:05;26.80;99.90
12520;DHT22;6325;49.540;8.364;2023-05-07T12:48:35;26.30;99.90
12520;DHT22;6325;49.540;8.364;2023-05-07T12:51:06;26.10;99.90
12520;DHT22;6325;49.540;8.364;2023-05-07T12:53:40;25.40;99.90
12520;DHT22;6325;49.540;8.364;2023-05-07T12:56:10;25.50;99.90
12520;DHT22;6325;49.540;8.364;2023-05-07T12:58:37;25.30;99.90
12520;DHT22;6325;49.540;8.364;2023-05-07T13:01:05;25.30;99.90
12520;DHT22;6325;49.540;8.364;2023-05-07T13:03:33;25.70;99.90
12520;DHT22;6325;49.540;8.364;2023-05-07T13:06:02;24.50;99.90
12520;DHT22;6325;49.540;8.364;2023-05-07T13:08:31;25.40;99.90
12520;DHT22;6325;49.540;8.364;2023-05-07T13:10:59;25.00;99.90
12520;DHT22;6325;49.540;8.364;2023-05-07T13:13:30;24.80;99.90
12520;DHT22;6325;49.540;8.364;2023-05-07T13:15:57;24.40;99.90
12520;DHT22;6325;49.540;8.364;2023-05-07T13:18:24;24.70;99.90
12520;DHT22;6325;49.540;8.364;2023-05-07T13:20:52;24.50;99.90
12520;DHT22;6325;49.540;8.364;2023-05-07T13:23:21;24.50;99.90
12520;DHT22;6325;49.540;8.364;2023-05-07T13:25:48;24.50;99.90
12520;DHT22;6325;49.540;8.364;2023-05-07T13:28:15;24.20;99.90
12520;DHT22;6325;49.540;8.364;2023-05-07T13:30:43;24.20;99.90
12520;DHT22;6325;49.540;8.364;2023-05-07T13:33:10;24.10;99.90
12520;DHT22;6325;49.540;8.364;2023-05-07T13:35:37;24.00;99.90
12520;DHT22;6325;49.540;8.364;2023-05-07T13:38:04;23.90;99.90
12520;DHT22;6325;49.540;8.364;2023-05-07T13:40:31;23.20;99.90
12520;DHT22;6325;49.540;8.364;2023-05-07T13:42:59;23.00;99.90
12520;DHT22;6325;49.540;8.364;2023-05-07T13:45:27;23.40;99.90
12520;DHT22;6325;49.540;8.364;2023-05-07T13:47:56;23.50;99.90
12520;DHT22;6325;49.540;8.364;2023-05-07T13:50:25;22.90;99.90
12520;DHT22;6325;49.540;8.364;2023-05-07T13:52:54;22.10;99.90
12520;DHT22;6325;49.540;8.364;2023-05-07T13:55:23;22.30;99.90
12520;DHT22;6325;49.540;8.364;2023-05-07T13:57:55;21.70;99.90
12520;DHT22;6325;49.540;8.364;2023-05-07T14:00:22;21.80;99.90
12520;DHT22;6325;49.540;8.364;2023-05-07T14:02:49;21.60;99.90
12520;DHT22;6325;49.540;8.364;2023-05-07T14:05:17;21.20;99.90
12520;DHT22;6325;49.540;8.364;2023-05-07T14:07:44;21.00;99.90
12520;DHT22;6325;49.540;8.364;2023-05-07T14:10:11;20.90;99.90
12520;DHT22;6325;49.540;8.364;2023-05-07T14:12:39;20.10;99.90
12520;DHT22;6325;49.540;8.364;2023-05-07T14:15:06;20.20;99.90
12520;DHT22;6325;49.540;8.364;2023-05-07T14:17:33;20.60;99.90
12520;DHT22;6325;49.540;8.364;2023-05-07T14:20:00;20.50;99.90
12520;DHT22;6325;49.540;8.364;2023-05-07T14:22:28;20.80;99.90
12520;DHT22;6325;49.540;8.364;2023-05-07T14:24:55;20.00;99.90
12520;DHT22;6325;49.540;8.364;2023-05-07T14:27:22;20.30;99.90
12520;DHT22;6325;49.540;8.364;2023-05-07T14:29:49;20.70;99.90
12520;DHT22;6325;49.540;8.364;2023-05-07T14:32:16;20.50;99.90
12520;DHT22;6325;49.540;8.364;2023-05-07T14:34:44;20.10;99.90
12520;DHT22;6325;49.540;8.364;2023-05-07T14:37:11;20.10;99.90
12520;DHT22;6325;49.540;8.364;2023-05-07T14:39:40;20.30;99.90
12520;DHT22;6325;49.540;8.364;2023-05-07T14:42:07;20.60;99.90
12520;DHT22;6325;49.540;8.364;2023-05-07T14:44:34;20.00;99.90
12520;DHT22;6325;49.540;8.364;2023-05-07T14:47:01;19.70;99.90
12520;DHT22;6325;49.540;8.364;2023-05-07T14:49:28;20.10;99.90
12520;DHT22;6325;49.540;8.364;2023-05-07T14:51:57;20.30;99.90
12520;DHT22;6325;49.540;8.364;2023-05-07T14:54:24;19.80;99.90
12520;DHT22;6325;49.540;8.364;2023-05-07T14:56:52;19.70;99.90
12520;DHT22;6325;49.540;8.364;2023-05-07T14:59:20;19.50;99.90
12520;DHT22;6325;49.540;8.364;2023-05-07T15:01:47;19.50;99.90
12520;DHT22;6325;49.540;8.364;2023-05-07T15:04:14;19.80;99.90
12520;DHT22;6325;49.540;8.364;2023-05-07T15:06:41;19.70;99.90
12520;DHT22;6325;49.540;8.364;2023-05-07T15:09:07;19.40;99.90
12520;DHT22;6325;49.540;8.364;2023-05-07T15:11:34;19.90;99.90
12520;DHT22;6325;49.540;8.364;2023-05-07T15:14:02;19.20;99.90
12520;DHT22;6325;49.540;8.364;2023-05-07T15:16:29;19.30;99.90
12520;DHT22;6325;49.540;8.364;2023-05-07T15:18:57;19.40;99.90
12520;DHT22;6325;49.540;8.364;2023-05-07T15:21:24;19.30;99.90
12520;DHT22;6325;49.540;8.364;2023-05-07T15:23:52;19.00;99.90
12520;DHT22;6325;49.540;8.364;2023-05-07T15:26:19;18.90;99.90
12520;DHT22;6325;49.540;8.364;2023-05-07T15:28:45;18.60;99.90
12520;DHT22;6325;49.540;8.364;2023-05-07T15:31:15;19.00;99.90
12520;DHT22;6325;49.540;8.364;2023-05-07T15:33:42;18.70;99.90
12520;DHT22;6325;49.540;8.364;2023-05-07T15:36:10;18.70;99.90
12520;DHT22;6325;49.540;8.364;2023-05-07T15:38:36;18.90;99.90
12520;DHT22;6325;49.540;8.364;2023-05-07T15:41:03;19.10;99.90
12520;DHT22;6325;49.540;8.364;2023-05-07T15:43:30;18.40;99.90
12520;DHT22;6325;49.540;8.364;2023-05-07T15:45:57;18.80;99.90
12520;DHT22;6325;49.540;8.364;2023-05-07T15:48:27;18.50;99.90
12520;DHT22;6325;49.540;8.364;2023-05-07T15:50:53;18.70;99.90
12520;DHT22;6325;49.540;8.364;2023-05-07T15:53:20;18.40;99.90
12520;DHT22;6325;49.540;8.364;2023-05-07T15:55:47;18.70;99.90